createdAt,value
2023-03-30T00:02:53.876Z,67.34
2023-03-30T00:07:56.977Z,69.08
2023-03-30T00:12:59.835Z,70.21
2023-03-30T00:18:04.286Z,70.88
2023-03-30T00:23:06.989Z,67.67
2023-03-30T00:28:09.831Z,67.40
2023-03-30T00:33:13.969Z,68.13
2023-03-30T00:38:16.776Z,67.98
2023-03-30T00:43:20.261Z,67.41
2023-03-30T00:48:27.314Z,68.59
2023-03-30T00:53:33.057Z,69.80
2023-03-30T00:58:37.219Z,71.63
2023-03-30T01:03:45.672Z,70.33
2023-03-30T01:08:49.136Z,72.01
2023-03-30T01:13:57.605Z,73.41
2023-03-30T01:19:18.836Z,73.83
2023-03-30T01:24:49.332Z,72.20
2023-03-30T01:30:12.596Z,71.86
2023-03-30T01:35:44.384Z,72.02
2023-03-30T01:40:54.923Z,74.67
2023-03-30T01:46:03.217Z,72.14
2023-03-30T01:51:11.369Z,74.02
2023-03-30T01:56:21.867Z,72.92
2023-03-30T02:01:27.811Z,75.11
2023-03-30T02:06:39.833Z,72.66
2023-03-30T02:11:47.598Z,74.64
2023-03-30T02:16:54.521Z,73.32
2023-03-30T02:21:57.716Z,74.39
2023-03-30T02:27:02.705Z,73.61
2023-03-30T02:32:05.825Z,73.54
2023-03-30T02:37:41.577Z,73.11
2023-03-30T02:43:00.060Z,75.50
2023-03-30T02:48:16.025Z,74.14
2023-03-30T02:53:27.325Z,73.86
2023-03-30T02:58:40.544Z,75.12
2023-03-30T03:03:52.577Z,76.10
2023-03-30T03:08:56.916Z,75.72
2023-03-30T03:14:07.835Z,75.67
2023-03-30T03:19:10.906Z,75.24
2023-03-30T03:24:17.425Z,77.34
2023-03-30T03:29:40.106Z,75.75
2023-03-30T03:34:46.401Z,75.80
2023-03-30T03:39:50.097Z,76.92
2023-03-30T03:44:54.765Z,75.92
2023-03-30T03:49:57.740Z,74.52
2023-03-30T03:55:00.929Z,74.53
2023-03-30T04:00:15.626Z,73.58
2023-03-30T04:05:21.022Z,74.17
2023-03-30T04:10:24.534Z,71.92
2023-03-30T04:15:55.529Z,71.89
2023-03-30T04:21:13.286Z,72.20
2023-03-30T04:26:28.483Z,72.54
2023-03-30T04:31:50.881Z,72.80
2023-03-30T04:37:18.053Z,71.68
2023-03-30T04:42:43.028Z,72.32
2023-03-30T04:48:05.928Z,70.82
2023-03-30T04:53:27.725Z,70.13
2023-03-30T04:58:49.253Z,71.76
2023-03-30T05:04:12.620Z,71.01
2023-03-30T05:09:49.753Z,70.87
2023-03-30T05:14:52.541Z,67.68
2023-03-30T05:20:15.357Z,69.75
2023-03-30T05:25:29.121Z,67.28
2023-03-30T05:30:58.091Z,67.37
2023-03-30T05:36:19.945Z,67.42
2023-03-30T05:41:33.593Z,65.88
2023-03-30T05:46:51.023Z,65.61
2023-03-30T05:52:13.794Z,63.61
2023-03-30T05:57:39.493Z,63.47
2023-03-30T06:02:59.288Z,64.62
2023-03-30T06:08:08.096Z,64.61
2023-03-30T06:13:11.280Z,66.25
2023-03-30T06:18:31.882Z,65.06
2023-03-30T06:23:42.604Z,64.10
2023-03-30T06:28:51.953Z,62.20
2023-03-30T06:33:54.963Z,62.45
2023-03-30T06:38:59.242Z,62.04
2023-03-30T06:44:03.665Z,60.06
2023-03-30T06:49:13.119Z,60.41
2023-03-30T06:54:21.544Z,51.00
2023-03-30T06:59:34.461Z,49.65
2023-03-30T07:05:03.569Z,51.28
2023-03-30T07:10:34.127Z,51.04
2023-03-30T07:15:39.475Z,49.50
2023-03-30T07:20:42.319Z,52.32
2023-03-30T07:25:51.889Z,53.45
2023-03-30T07:31:14.321Z,53.10
2023-03-30T07:36:19.760Z,53.37
2023-03-30T07:41:24.478Z,55.90
2023-03-30T07:46:31.504Z,56.48
2023-03-30T07:51:34.569Z,58.59
2023-03-30T07:56:52.548Z,59.03
2023-03-30T08:01:56.149Z,56.94
2023-03-30T08:07:21.874Z,58.02
2023-03-30T08:12:31.132Z,55.62
2023-03-30T08:17:33.907Z,57.07
2023-03-30T08:22:36.816Z,57.31
2023-03-30T08:27:41.088Z,57.50
2023-03-30T08:32:43.950Z,58.00
2023-03-30T08:37:46.747Z,59.93
2023-03-30T08:43:15.711Z,60.73
2023-03-30T08:48:21.889Z,62.83
2023-03-30T08:53:24.806Z,60.08
2023-03-30T08:58:40.009Z,59.64
2023-03-30T09:03:56.503Z,54.02
2023-03-30T09:08:59.633Z,53.56
2023-03-30T09:14:07.387Z,52.76
2023-03-30T09:19:16.404Z,51.50
2023-03-30T09:24:25.644Z,51.76
2023-03-30T09:29:33.049Z,51.15
2023-03-30T09:34:41.996Z,52.72
2023-03-30T09:39:45.889Z,55.53
2023-03-30T09:44:53.287Z,54.52
2023-03-30T09:49:58.657Z,52.54
2023-03-30T09:55:24.836Z,54.29
2023-03-30T10:00:32.382Z,51.36
2023-03-30T10:05:37.489Z,51.44
2023-03-30T10:10:41.128Z,50.82
2023-03-30T10:15:49.833Z,49.17
2023-03-30T10:20:53.987Z,49.74
2023-03-30T10:26:03.809Z,50.25
2023-03-30T10:31:15.469Z,50.69
2023-03-30T10:36:20.365Z,51.01
2023-03-30T10:41:25.121Z,49.72
2023-03-30T10:46:31.337Z,50.84
2023-03-30T10:51:46.946Z,48.89
2023-03-30T10:56:52.659Z,51.08
2023-03-30T11:02:12.843Z,49.69
2023-03-30T11:07:25.616Z,47.79
2023-03-30T11:12:36.300Z,46.70
2023-03-30T11:17:51.171Z,45.66
2023-03-30T11:23:02.239Z,46.38
2023-03-30T11:28:14.734Z,44.51
2023-03-30T11:33:28.177Z,44.31
2023-03-30T11:38:41.422Z,43.35
2023-03-30T11:43:44.717Z,42.59
2023-03-30T11:49:03.895Z,43.43
2023-03-30T11:54:56.087Z,42.58
2023-03-30T12:00:28.383Z,41.84
2023-03-30T12:05:36.168Z,43.84
2023-03-30T12:10:42.405Z,47.45
2023-03-30T12:15:52.035Z,53.65
2023-03-30T12:21:02.834Z,64.67
2023-03-30T12:26:25.409Z,66.98
2023-03-30T12:32:05.484Z,62.42
2023-03-30T12:37:14.239Z,60.53
2023-03-30T12:42:26.515Z,59.02
2023-03-30T12:47:49.308Z,58.61
2023-03-30T12:53:06.327Z,58.38
2023-03-30T12:58:37.946Z,57.16
2023-03-30T13:03:49.999Z,55.79
2023-03-30T13:09:07.753Z,53.90
2023-03-30T13:14:17.808Z,51.56
2023-03-30T13:19:28.649Z,51.99
2023-03-30T13:24:44.511Z,50.63
2023-03-30T13:29:53.597Z,47.20
2023-03-30T13:35:13.083Z,45.57
2023-03-30T13:40:39.655Z,45.53
2023-03-30T13:45:53.750Z,46.55
2023-03-30T13:51:00.371Z,46.13
2023-03-30T13:56:08.464Z,46.20
2023-03-30T14:01:13.427Z,43.44
2023-03-30T14:06:18.911Z,44.11
2023-03-30T14:11:29.039Z,44.19
2023-03-30T14:16:35.142Z,44.42
2023-03-30T14:21:39.572Z,44.58
2023-03-30T14:26:44.618Z,44.53
2023-03-30T14:32:00.492Z,44.66
2023-03-30T14:37:12.701Z,43.40
2023-03-30T14:42:19.620Z,44.69
2023-03-30T14:47:25.170Z,45.45
2023-03-30T14:52:31.825Z,44.35
2023-03-30T14:57:38.798Z,44.09
2023-03-30T15:02:42.380Z,43.79
2023-03-30T15:07:49.031Z,44.65
2023-03-30T15:12:55.768Z,44.31
2023-03-30T15:17:59.516Z,43.13
2023-03-30T15:23:02.551Z,42.41
2023-03-30T15:28:09.149Z,43.57
2023-03-30T15:33:21.671Z,43.42
2023-03-30T15:38:36.146Z,44.77
2023-03-30T15:43:57.193Z,49.53
2023-03-30T15:49:00.592Z,51.33
2023-03-30T15:54:05.370Z,53.12
2023-03-30T15:59:20.665Z,55.54
2023-03-30T16:04:25.828Z,57.84
2023-03-30T16:09:31.518Z,56.04
2023-03-30T16:14:37.643Z,55.33
2023-03-30T16:19:41.182Z,59.08
2023-03-30T16:24:44.509Z,55.59
2023-03-30T16:29:48.635Z,60.08
2023-03-30T16:34:52.207Z,56.44
2023-03-30T16:39:55.108Z,58.29
2023-03-30T16:44:59.398Z,58.59
2023-03-30T16:50:02.283Z,58.50
2023-03-30T16:55:05.665Z,57.74
2023-03-30T17:00:20.328Z,60.68
2023-03-30T17:05:23.517Z,60.09
2023-03-30T17:10:28.554Z,57.77
2023-03-30T17:15:35.104Z,56.22
2023-03-30T17:20:42.964Z,57.87
2023-03-30T17:25:51.973Z,57.38
2023-03-30T17:30:58.904Z,57.81
2023-03-30T17:36:07.035Z,57.71
2023-03-30T17:41:12.748Z,58.70
2023-03-30T17:46:19.061Z,59.03
2023-03-30T17:51:25.252Z,61.59
2023-03-30T17:56:37.153Z,60.45
2023-03-30T18:01:48.341Z,60.96
2023-03-30T18:06:52.433Z,58.01
2023-03-30T18:11:55.371Z,56.43
2023-03-30T18:17:06.370Z,58.03
2023-03-30T18:22:09.535Z,58.17
2023-03-30T18:27:18.309Z,61.15
2023-03-30T18:32:22.748Z,64.11
2023-03-30T18:37:27.595Z,68.64
2023-03-30T18:42:35.069Z,72.40
2023-03-30T18:47:42.563Z,71.90
2023-03-30T18:52:45.957Z,71.52
2023-03-30T18:57:53.960Z,73.67
2023-03-30T19:02:59.067Z,70.29
2023-03-30T19:08:05.056Z,72.83
2023-03-30T19:13:08.044Z,70.90
2023-03-30T19:18:12.913Z,68.84
2023-03-30T19:23:16.438Z,67.96
2023-03-30T19:28:25.986Z,68.49
2023-03-30T19:45:55.293Z,65.23
2023-03-30T19:50:59.533Z,66.48
2023-03-30T19:56:02.417Z,69.42
2023-03-30T20:01:05.679Z,67.81
2023-03-30T20:06:12.537Z,72.21
2023-03-30T20:11:16.070Z,74.81
2023-03-30T20:16:21.270Z,71.84
2023-03-30T20:21:27.302Z,69.68
2023-03-30T20:26:30.783Z,73.54
2023-03-30T20:31:33.743Z,73.90
2023-03-30T20:36:38.025Z,73.81
2023-03-30T20:41:42.403Z,70.73
2023-03-30T20:46:45.416Z,73.12
2023-03-30T20:51:51.472Z,69.83
2023-03-30T20:56:54.475Z,70.04
2023-03-30T21:01:59.144Z,71.53
2023-03-30T21:07:03.378Z,73.02
2023-03-30T21:12:06.803Z,78.41
2023-03-30T21:17:09.740Z,76.91
2023-03-30T21:22:13.906Z,77.36
2023-03-30T21:27:16.698Z,74.19
2023-03-30T21:32:19.506Z,74.73
2023-03-30T21:37:23.614Z,76.56
2023-03-30T21:42:26.420Z,78.06
2023-03-30T21:47:29.262Z,77.11
2023-03-30T21:52:33.681Z,75.28
2023-03-30T21:57:36.489Z,78.22
2023-03-30T22:02:39.455Z,82.31
2023-03-30T22:07:43.655Z,79.74
2023-03-30T22:12:46.563Z,78.56
2023-03-30T22:17:49.473Z,84.40
2023-03-30T22:22:53.604Z,77.86
2023-03-30T22:27:57.841Z,78.60
2023-03-30T22:33:00.767Z,75.83
2023-03-30T22:38:05.163Z,73.84
2023-03-30T22:43:07.951Z,72.44
2023-03-30T22:48:10.741Z,75.67
2023-03-30T22:53:14.898Z,72.98
2023-03-30T22:58:17.806Z,73.72
2023-03-30T23:03:21.438Z,75.49
2023-03-30T23:08:25.685Z,75.17
2023-03-30T23:13:28.440Z,77.92
2023-03-30T23:18:31.265Z,79.56
2023-03-30T23:23:36.260Z,80.18
2023-03-30T23:28:42.296Z,76.91
2023-03-30T23:33:45.584Z,76.11
2023-03-30T23:38:49.807Z,78.03
2023-03-30T23:43:52.664Z,77.96
2023-03-30T23:48:55.821Z,75.77
2023-03-30T23:54:05.999Z,73.56
2023-03-30T23:59:10.393Z,71.40
